createdAt,value
2018-03-26T00:01:53.536Z,99688.73
2018-03-26T00:04:21.059Z,99693.30
2018-03-26T00:06:49.556Z,99694.04
2018-03-26T00:09:17.059Z,99689.53
2018-03-26T00:11:44.796Z,99700.31
2018-03-26T00:14:12.296Z,99699.21
2018-03-26T00:16:40.460Z,99700.03
2018-03-26T00:19:08.131Z,99705.37
2018-03-26T00:21:35.619Z,99704.45
2018-03-26T00:24:03.108Z,99709.47
2018-03-26T00:26:30.570Z,99706.52
2018-03-26T00:28:58.306Z,99705.59
2018-03-26T00:31:25.759Z,99713.09
2018-03-26T00:33:53.496Z,99712.88
2018-03-26T00:36:21.008Z,99706.94
2018-03-26T00:38:48.642Z,99712.08
2018-03-26T00:41:16.095Z,99706.42
2018-03-26T00:43:43.571Z,99713.06
2018-03-26T00:46:11.029Z,99710.31
2018-03-26T00:48:38.599Z,99709.91
2018-03-26T00:51:06.074Z,99708.94
2018-03-26T00:53:44.467Z,99719.05
2018-03-26T00:56:11.950Z,99720.02
2018-03-26T00:58:39.435Z,99717.19
2018-03-26T01:01:07.147Z,99716.99
2018-03-26T01:03:34.607Z,99724.41
2018-03-26T01:06:02.087Z,99726.03
2018-03-26T01:08:29.536Z,99725.38
2018-03-26T01:10:57.032Z,99729.45
2018-03-26T01:13:24.522Z,99730.80
2018-03-26T01:15:51.996Z,99729.13
2018-03-26T01:18:19.467Z,99729.39
2018-03-26T01:20:47.008Z,99734.48
2018-03-26T01:23:14.992Z,99731.77
2018-03-26T01:25:42.503Z,99739.02
2018-03-26T01:28:09.964Z,99740.98
2018-03-26T01:30:37.503Z,99745.92
2018-03-26T01:33:05.396Z,99743.42
2018-03-26T01:35:33.520Z,99752.22
2018-03-26T01:38:01.786Z,99753.91
2018-03-26T01:40:29.546Z,99759.81
2018-03-26T01:42:57.043Z,99758.30
2018-03-26T01:45:24.816Z,99761.30
2018-03-26T01:47:52.794Z,99761.77
2018-03-26T01:50:20.282Z,99768.81
2018-03-26T01:52:48.439Z,99769.91
2018-03-26T01:55:16.140Z,99776.73
2018-03-26T01:57:44.077Z,99778.95
2018-03-26T02:00:11.551Z,99777.28
2018-03-26T02:02:39.040Z,99785.20
2018-03-26T02:05:06.854Z,99782.75
2018-03-26T02:07:34.363Z,99774.80
2018-03-26T02:10:01.845Z,99780.47
2018-03-26T02:12:29.302Z,99778.54
2018-03-26T02:14:57.469Z,99785.72
2018-03-26T02:17:24.967Z,99786.33
2018-03-26T02:19:52.727Z,99785.00
2018-03-26T02:22:20.211Z,99790.13
2018-03-26T02:24:47.711Z,99794.00
2018-03-26T02:27:15.497Z,99795.30
2018-03-26T02:29:43.024Z,99792.02
2018-03-26T02:32:10.527Z,99796.06
2018-03-26T02:34:37.983Z,99796.94
2018-03-26T02:37:05.542Z,99798.69
2018-03-26T02:39:33.904Z,99797.41
2018-03-26T02:42:01.420Z,99805.51
2018-03-26T02:44:29.099Z,99798.69
2018-03-26T02:46:56.857Z,99806.98
2018-03-26T02:49:24.314Z,99806.91
2018-03-26T02:51:51.800Z,99813.98
2018-03-26T02:54:19.571Z,99813.86
2018-03-26T02:56:47.090Z,99815.75
2018-03-26T02:59:14.881Z,99817.84
2018-03-26T03:01:42.405Z,99813.51
2018-03-26T03:04:10.245Z,99821.19
2018-03-26T03:06:37.772Z,99829.67
2018-03-26T03:09:06.134Z,99822.95
2018-03-26T03:11:33.608Z,99817.63
2018-03-26T03:14:01.369Z,99827.05
2018-03-26T03:16:29.723Z,99826.92
2018-03-26T03:18:57.359Z,99828.13
2018-03-26T03:21:24.859Z,99827.31
2018-03-26T03:23:52.702Z,99824.00
2018-03-26T03:26:20.190Z,99827.48
2018-03-26T03:28:48.021Z,99836.02
2018-03-26T03:31:15.770Z,99837.97
2018-03-26T03:33:43.467Z,99836.45
2018-03-26T03:36:12.866Z,99842.77
2018-03-26T03:38:40.353Z,99836.80
2018-03-26T03:41:07.829Z,99842.41
2018-03-26T03:43:35.775Z,99841.14
2018-03-26T03:46:03.267Z,99841.13
2018-03-26T03:48:30.731Z,99842.13
2018-03-26T03:50:58.257Z,99850.73
2018-03-26T03:53:25.748Z,99847.33
2018-03-26T03:55:53.249Z,99848.92
2018-03-26T03:58:21.683Z,99851.49
2018-03-26T04:00:49.148Z,99850.48
2018-03-26T04:03:16.666Z,99854.77
2018-03-26T04:05:44.135Z,99857.11
2018-03-26T04:08:11.647Z,99849.25
2018-03-26T04:10:39.103Z,99859.27
2018-03-26T04:13:06.590Z,99857.56
2018-03-26T04:15:34.380Z,99858.09
2018-03-26T04:18:01.867Z,99862.92
2018-03-26T04:20:29.335Z,99863.69
2018-03-26T04:22:57.230Z,99870.17
2018-03-26T04:25:24.921Z,99869.42
2018-03-26T04:27:52.408Z,99870.52
2018-03-26T04:30:19.878Z,99882.19
2018-03-26T04:32:47.832Z,99868.86
2018-03-26T04:35:15.591Z,99878.22
2018-03-26T04:37:43.131Z,99876.91
2018-03-26T04:40:11.512Z,99881.48
2018-03-26T04:42:39.256Z,99885.52
2018-03-26T04:45:07.139Z,99887.58
2018-03-26T04:47:34.632Z,99884.71
2018-03-26T04:50:02.128Z,99880.03
2018-03-26T04:52:29.608Z,99882.80
2018-03-26T04:54:57.457Z,99882.20
2018-03-26T04:57:25.450Z,99887.69
2018-03-26T04:59:54.105Z,99890.09
2018-03-26T05:02:21.580Z,99890.55
2018-03-26T05:04:49.618Z,99890.88
2018-03-26T05:07:17.335Z,99892.98
2018-03-26T05:09:44.871Z,99895.67
2018-03-26T05:12:13.054Z,99895.03
2018-03-26T05:14:40.735Z,99901.93
2018-03-26T05:17:08.743Z,99905.92
2018-03-26T05:19:36.230Z,99913.27
2018-03-26T05:22:03.723Z,99907.89
2018-03-26T05:24:31.207Z,99912.23
2018-03-26T05:27:00.534Z,99915.36
2018-03-26T05:29:28.008Z,99922.83
2018-03-26T05:31:55.502Z,99925.67
2018-03-26T05:34:24.019Z,99925.10
2018-03-26T05:36:51.479Z,99933.73
2018-03-26T05:39:18.951Z,99939.66
2018-03-26T05:41:46.659Z,99943.97
2018-03-26T05:44:14.424Z,99946.33
2018-03-26T05:46:42.120Z,99953.97
2018-03-26T05:49:09.613Z,99959.22
2018-03-26T05:51:37.108Z,99961.64
2018-03-26T05:54:04.624Z,99965.59
2018-03-26T05:56:32.082Z,99973.97
2018-03-26T05:58:59.815Z,99971.95
2018-03-26T06:01:27.683Z,99972.97
2018-03-26T06:03:55.395Z,99972.52
2018-03-26T06:06:22.877Z,99975.17
2018-03-26T06:08:50.422Z,99981.58
2018-03-26T06:11:17.915Z,99985.98
2018-03-26T06:13:45.451Z,99987.20
2018-03-26T06:16:13.698Z,99991.27
2018-03-26T06:18:41.981Z,99993.19
2018-03-26T06:21:09.475Z,99998.39
2018-03-26T06:23:37.218Z,100002.05
2018-03-26T06:26:04.690Z,100002.38
2018-03-26T06:28:32.951Z,100010.02
2018-03-26T06:31:00.923Z,99999.83
2018-03-26T06:33:28.436Z,100007.33
2018-03-26T06:35:55.897Z,100001.78
2018-03-26T06:38:28.931Z,100013.77
2018-03-26T06:40:56.395Z,100014.88
2018-03-26T06:43:23.958Z,100022.88
2018-03-26T06:45:51.708Z,100016.85
2018-03-26T06:48:19.219Z,100021.30
2018-03-26T06:50:46.683Z,100024.90
2018-03-26T06:53:14.671Z,100027.67
2018-03-26T06:55:42.188Z,100032.93
2018-03-26T06:58:09.649Z,100034.41
2018-03-26T07:00:37.135Z,100034.50
2018-03-26T07:03:04.634Z,100032.66
2018-03-26T07:05:32.229Z,100039.97
2018-03-26T07:08:00.147Z,100039.36
2018-03-26T07:10:28.036Z,100038.55
2018-03-26T07:12:55.507Z,100044.89
2018-03-26T07:15:23.027Z,100043.34
2018-03-26T07:17:50.531Z,100045.62
2018-03-26T07:20:18.083Z,100051.42
2018-03-26T07:22:45.548Z,100049.20
2018-03-26T07:25:13.304Z,100048.05
2018-03-26T07:27:40.791Z,100049.22
2018-03-26T07:30:08.273Z,100054.31
2018-03-26T07:32:35.738Z,100061.98
2018-03-26T07:35:03.221Z,100054.19
2018-03-26T07:37:31.473Z,100054.14
2018-03-26T07:39:59.376Z,100051.23
2018-03-26T07:42:27.138Z,100056.16
2018-03-26T07:44:55.032Z,100058.93
2018-03-26T07:47:22.917Z,100059.16
2018-03-26T07:49:51.153Z,100062.61
2018-03-26T07:52:19.848Z,100064.66
2018-03-26T07:54:48.040Z,100067.61
2018-03-26T07:57:16.071Z,100073.42
2018-03-26T07:59:43.579Z,100073.47
2018-03-26T08:02:11.040Z,100070.39
2018-03-26T08:04:38.555Z,100081.66
2018-03-26T08:07:06.082Z,100081.90
2018-03-26T08:09:33.571Z,100090.75
2018-03-26T08:12:01.036Z,100096.38
2018-03-26T08:14:28.811Z,100093.82
2018-03-26T08:16:56.527Z,100092.41
2018-03-26T08:19:23.999Z,100100.13
2018-03-26T08:21:51.529Z,100100.10
2018-03-26T08:24:19.054Z,100105.09
2018-03-26T08:26:46.582Z,100107.48
2018-03-26T08:29:14.053Z,100102.00
2018-03-26T08:31:42.332Z,100111.14
2018-03-26T08:34:09.833Z,100106.20
2018-03-26T08:36:38.068Z,100111.87
2018-03-26T08:39:06.094Z,100111.83
2018-03-26T08:41:33.816Z,100119.01
2018-03-26T08:44:01.287Z,100116.49
2018-03-26T08:46:29.495Z,100115.16
2018-03-26T08:48:56.991Z,100115.19
2018-03-26T08:51:24.475Z,100115.31
2018-03-26T08:53:52.610Z,100114.22
2018-03-26T08:56:20.133Z,100114.22
2018-03-26T08:58:47.866Z,100118.84
2018-03-26T09:01:15.348Z,100123.62
2018-03-26T09:03:42.851Z,100129.91
2018-03-26T09:06:10.358Z,100121.44
2018-03-26T09:08:38.077Z,100120.55
2018-03-26T09:11:05.563Z,100123.50
2018-03-26T09:13:33.047Z,100115.56
2018-03-26T09:16:01.288Z,100115.88
2018-03-26T09:18:28.753Z,100121.02
2018-03-26T09:20:56.267Z,100122.73
2018-03-26T09:23:24.207Z,100124.09
2018-03-26T09:25:51.736Z,100117.34
2018-03-26T09:28:19.208Z,100131.34
2018-03-26T09:30:47.182Z,100125.31
2018-03-26T09:33:15.171Z,100133.38
2018-03-26T09:35:42.688Z,100130.95
2018-03-26T09:38:10.155Z,100124.29
2018-03-26T09:40:38.276Z,100138.57
2018-03-26T09:43:05.808Z,100132.52
2018-03-26T09:45:33.280Z,100134.12
2018-03-26T09:48:01.716Z,100137.95
2018-03-26T09:50:29.179Z,100137.19
2018-03-26T09:52:56.666Z,100135.91
2018-03-26T09:55:24.143Z,100130.31
2018-03-26T09:57:51.632Z,100138.69
2018-03-26T10:00:19.089Z,100136.16
2018-03-26T10:02:46.568Z,100133.62
2018-03-26T10:05:14.030Z,100132.97
2018-03-26T10:07:41.506Z,100131.16
2018-03-26T10:10:08.973Z,100131.52
2018-03-26T10:12:36.847Z,100142.98
2018-03-26T10:15:04.726Z,100131.73
2018-03-26T10:17:32.500Z,100133.02
2018-03-26T10:20:01.223Z,100133.17
2018-03-26T10:22:28.754Z,100137.72
2018-03-26T10:24:56.277Z,100131.27
2018-03-26T10:27:23.765Z,100128.83
2018-03-26T10:29:51.223Z,100133.33
2018-03-26T10:32:19.092Z,100136.61
2018-03-26T10:34:46.648Z,100141.03
2018-03-26T10:37:14.134Z,100136.94
2018-03-26T10:39:41.608Z,100139.66
2018-03-26T10:42:09.097Z,100138.07
2018-03-26T10:44:36.559Z,100131.64
2018-03-26T10:47:04.051Z,100144.96
2018-03-26T10:49:31.523Z,100133.48
2018-03-26T10:51:59.006Z,100135.47
2018-03-26T10:54:26.487Z,100128.37
2018-03-26T10:56:53.967Z,100132.61
2018-03-26T10:59:21.438Z,100125.61
2018-03-26T11:01:48.894Z,100131.77
2018-03-26T11:04:16.370Z,100131.86
2018-03-26T11:06:43.831Z,100132.11
2018-03-26T11:09:11.316Z,100127.67
2018-03-26T11:11:38.794Z,100131.78
2018-03-26T11:14:06.272Z,100128.34
2018-03-26T11:16:33.946Z,100134.38
2018-03-26T11:19:01.429Z,100122.80
2018-03-26T11:21:28.891Z,100130.81
2018-03-26T11:23:56.375Z,100128.50
2018-03-26T11:26:23.840Z,100126.19
2018-03-26T11:28:52.305Z,100121.70
2018-03-26T11:31:19.804Z,100123.06
2018-03-26T11:33:47.283Z,100131.58
2018-03-26T11:36:15.723Z,100125.19
2018-03-26T11:38:43.200Z,100135.38
2018-03-26T11:41:10.722Z,100133.27
2018-03-26T11:43:38.212Z,100128.48
2018-03-26T11:46:15.784Z,100131.56
2018-03-26T11:48:43.279Z,100136.03
2018-03-26T11:51:10.761Z,100124.41
2018-03-26T11:53:38.247Z,100131.25
2018-03-26T11:56:06.603Z,100128.36
2018-03-26T11:58:34.090Z,100128.47
2018-03-26T12:01:07.818Z,100125.20
2018-03-26T12:03:35.294Z,100124.95
2018-03-26T12:06:02.746Z,100118.61
2018-03-26T12:08:36.283Z,100113.41
2018-03-26T12:11:03.743Z,100113.30
2018-03-26T12:13:31.255Z,100116.77
2018-03-26T12:15:58.710Z,100122.22
2018-03-26T12:18:26.188Z,100116.33
2018-03-26T12:21:00.159Z,100115.43
2018-03-26T12:23:39.419Z,100121.75
2018-03-26T12:26:06.918Z,100115.78
2018-03-26T12:28:46.024Z,100116.02
2018-03-26T12:31:13.956Z,100110.70
2018-03-26T12:33:53.375Z,100112.57
2018-03-26T12:36:20.831Z,100114.91
2018-03-26T12:38:49.299Z,100116.86
2018-03-26T12:41:16.783Z,100114.20
2018-03-26T12:43:44.239Z,100118.31
2018-03-26T12:46:23.638Z,100123.72
2018-03-26T12:48:51.103Z,100119.19
2018-03-26T12:51:30.447Z,100122.20
2018-03-26T12:53:57.906Z,100121.95
2018-03-26T12:56:25.383Z,100120.05
2018-03-26T12:58:52.840Z,100118.29
2018-03-26T13:01:32.171Z,100121.51
2018-03-26T13:03:59.674Z,100112.52
2018-03-26T13:06:27.164Z,100114.94
2018-03-26T13:08:54.643Z,100117.63
2018-03-26T13:11:22.130Z,100115.50
2018-03-26T13:13:50.099Z,100112.27
2018-03-26T13:16:17.586Z,100110.21
2018-03-26T13:18:45.052Z,100120.02
2018-03-26T13:21:12.548Z,100108.78
2018-03-26T13:23:40.012Z,100119.53
2018-03-26T13:26:07.496Z,100120.94
2018-03-26T13:28:34.974Z,100111.94
2018-03-26T13:31:02.451Z,100116.70
2018-03-26T13:33:29.954Z,100117.11
2018-03-26T13:35:57.440Z,100120.16
2018-03-26T13:38:24.919Z,100124.20
2018-03-26T13:40:52.399Z,100119.38
2018-03-26T13:43:19.858Z,100123.02
2018-03-26T13:45:47.339Z,100121.53
2018-03-26T13:48:14.805Z,100119.03
2018-03-26T13:50:42.300Z,100119.13
2018-03-26T13:53:09.762Z,100121.72
2018-03-26T13:55:37.240Z,100124.59
2018-03-26T13:58:04.708Z,100125.64
2018-03-26T14:00:32.190Z,100141.27
2018-03-26T14:02:59.664Z,100135.06
2018-03-26T14:05:27.155Z,100131.45
2018-03-26T14:07:54.619Z,100131.87
2018-03-26T14:10:33.883Z,100130.27
2018-03-26T14:13:13.257Z,100135.44
2018-03-26T14:15:52.519Z,100141.80
2018-03-26T14:18:19.979Z,100137.87
2018-03-26T14:20:47.479Z,100131.73
2018-03-26T14:23:14.940Z,100136.11
2018-03-26T14:25:42.398Z,100135.44
2018-03-26T14:28:10.591Z,100143.45
2018-03-26T14:30:38.053Z,100140.07
2018-03-26T14:33:05.524Z,100147.81
2018-03-26T14:35:47.867Z,100145.10
2018-03-26T14:38:15.359Z,100135.02
2018-03-26T14:40:42.814Z,100142.22
2018-03-26T14:43:10.324Z,100139.09
2018-03-26T14:45:37.763Z,100138.42
2018-03-26T14:48:05.242Z,100135.16
2018-03-26T14:50:32.702Z,100136.52
2018-03-26T14:53:00.180Z,100134.31
2018-03-26T14:55:27.743Z,100145.30
2018-03-26T14:57:55.136Z,100142.00
2018-03-26T15:00:22.616Z,100137.62
2018-03-26T15:02:50.105Z,100145.11
2018-03-26T15:05:17.564Z,100147.31
2018-03-26T15:07:45.058Z,100136.87
2018-03-26T15:10:12.527Z,100143.86
2018-03-26T15:12:40.011Z,100147.67
2018-03-26T15:15:07.482Z,100144.55
2018-03-26T15:17:34.978Z,100149.63
2018-03-26T15:20:02.440Z,100156.12
2018-03-26T15:22:29.923Z,100155.52
2018-03-26T15:24:57.392Z,100163.41
2018-03-26T15:27:24.932Z,100168.05
2018-03-26T15:29:52.359Z,100159.94
2018-03-26T15:32:19.848Z,100159.39
2018-03-26T15:34:48.141Z,100167.89
2018-03-26T15:37:15.627Z,100166.77
2018-03-26T15:39:43.091Z,100158.97
2018-03-26T15:42:10.578Z,100162.05
2018-03-26T15:44:38.061Z,100155.77
2018-03-26T15:47:05.547Z,100165.42
2018-03-26T15:49:33.013Z,100150.16
2018-03-26T15:52:00.496Z,100156.78
2018-03-26T15:54:27.960Z,100154.06
2018-03-26T15:56:55.453Z,100155.77
2018-03-26T15:59:22.932Z,100155.23
2018-03-26T16:01:50.386Z,100154.83
2018-03-26T16:04:17.878Z,100158.87
2018-03-26T16:06:45.340Z,100148.66
2018-03-26T16:09:12.841Z,100155.19
2018-03-26T16:11:40.355Z,100149.46
2018-03-26T16:14:07.874Z,100157.58
2018-03-26T16:16:36.094Z,100150.31
2018-03-26T16:19:03.579Z,100153.05
2018-03-26T16:21:31.048Z,100151.53
2018-03-26T16:23:58.823Z,100155.13
2018-03-26T16:26:26.287Z,100155.66
2018-03-26T16:28:53.786Z,100155.52
2018-03-26T16:31:21.261Z,100162.08
2018-03-26T16:33:48.739Z,100160.48
2018-03-26T16:36:16.431Z,100157.56
2018-03-26T16:38:43.911Z,100166.20
2018-03-26T16:41:11.371Z,100168.23
2018-03-26T16:43:38.887Z,100168.34
2018-03-26T16:46:06.870Z,100161.42
2018-03-26T16:48:34.357Z,100162.97
2018-03-26T16:51:01.846Z,100161.10
2018-03-26T16:53:29.327Z,100163.00
2018-03-26T16:55:56.783Z,100161.71
2018-03-26T16:58:24.267Z,100159.16
2018-03-26T17:00:51.724Z,100163.44
2018-03-26T17:03:20.114Z,100171.47
2018-03-26T17:05:47.580Z,100166.79
2018-03-26T17:08:15.064Z,100168.95
2018-03-26T17:10:42.519Z,100169.89
2018-03-26T17:13:09.995Z,100166.80
2018-03-26T17:15:37.463Z,100169.92
2018-03-26T17:18:04.951Z,100171.09
2018-03-26T17:20:32.413Z,100172.52
2018-03-26T17:22:59.920Z,100167.55
2018-03-26T17:25:27.375Z,100157.19
2018-03-26T17:27:54.831Z,100162.95
2018-03-26T17:30:22.314Z,100159.53
2018-03-26T17:32:49.770Z,100167.95
2018-03-26T17:35:17.264Z,100163.97
2018-03-26T17:37:44.735Z,100162.72
2018-03-26T17:40:12.216Z,100160.91
2018-03-26T17:42:39.667Z,100160.62
2018-03-26T17:45:07.150Z,100163.91
2018-03-26T17:47:34.612Z,100169.59
2018-03-26T17:50:02.090Z,100169.06
2018-03-26T17:52:29.559Z,100166.83
2018-03-26T17:54:57.052Z,100177.01
2018-03-26T17:57:24.510Z,100170.35
2018-03-26T17:59:52.011Z,100173.77
2018-03-26T18:02:19.476Z,100171.34
2018-03-26T18:04:46.956Z,100174.09
2018-03-26T18:07:14.415Z,100171.25
2018-03-26T18:09:41.895Z,100163.66
2018-03-26T18:12:09.375Z,100169.28
2018-03-26T18:14:36.856Z,100162.45
2018-03-26T18:17:04.315Z,100165.20
2018-03-26T18:19:31.803Z,100162.95
2018-03-26T18:21:59.290Z,100169.25
2018-03-26T18:24:26.767Z,100174.90
2018-03-26T18:26:54.228Z,100172.13
2018-03-26T18:29:21.711Z,100180.81
2018-03-26T18:31:49.164Z,100181.95
2018-03-26T18:34:16.730Z,100172.96
2018-03-26T18:36:50.843Z,100175.36
2018-03-26T18:39:18.325Z,100175.00
2018-03-26T18:41:45.825Z,100170.89
2018-03-26T18:44:13.334Z,100172.27
2018-03-26T18:46:40.799Z,100168.56
2018-03-26T18:49:09.296Z,100182.48
2018-03-26T18:51:36.792Z,100178.00
2018-03-26T18:54:04.274Z,100176.77
2018-03-26T18:59:24.754Z,100183.05
2018-03-26T19:02:02.583Z,100178.66
2018-03-26T19:04:30.060Z,100176.42
2018-03-26T19:06:57.515Z,100176.84
2018-03-26T19:09:25.027Z,100171.45
2018-03-26T19:11:52.484Z,100181.55
2018-03-26T19:14:19.986Z,100182.58
2018-03-26T19:16:47.493Z,100187.17
2018-03-26T19:19:14.918Z,100184.64
2018-03-26T19:21:42.399Z,100185.42
2018-03-26T19:24:09.860Z,100191.17
2018-03-26T19:26:37.332Z,100191.52
2018-03-26T19:29:04.796Z,100194.98
2018-03-26T19:31:33.386Z,100189.92
2018-03-26T19:34:00.845Z,100190.21
2018-03-26T19:36:28.322Z,100191.05
2018-03-26T19:38:55.778Z,100189.58
2018-03-26T19:41:23.265Z,100192.09
2018-03-26T19:43:50.790Z,100197.91
2018-03-26T19:46:18.340Z,100203.41
2018-03-26T19:48:45.788Z,100201.98
2018-03-26T19:51:13.282Z,100204.34
2018-03-26T19:53:40.740Z,100201.54
2018-03-26T19:56:08.223Z,100209.94
2018-03-26T19:58:35.679Z,100211.44
2018-03-26T20:01:03.168Z,100203.27
2018-03-26T20:03:30.639Z,100208.70
2018-03-26T20:05:58.132Z,100204.42
2018-03-26T20:08:25.594Z,100201.67
2018-03-26T20:10:53.087Z,100198.60
2018-03-26T20:13:20.552Z,100203.61
2018-03-26T20:15:48.039Z,100204.61
2018-03-26T20:18:15.507Z,100206.56
2018-03-26T20:20:42.983Z,100209.00
2018-03-26T20:23:10.487Z,100213.33
2018-03-26T20:25:37.939Z,100217.69
2018-03-26T20:28:05.404Z,100214.28
2018-03-26T20:30:32.906Z,100214.33
2018-03-26T20:33:00.387Z,100209.52
2018-03-26T20:35:27.864Z,100207.72
2018-03-26T20:37:55.322Z,100210.64
2018-03-26T20:40:22.771Z,100215.63
2018-03-26T20:42:50.247Z,100213.45
2018-03-26T20:45:17.703Z,100220.64
2018-03-26T20:47:45.186Z,100211.50
2018-03-26T20:50:12.663Z,100215.97
2018-03-26T20:52:40.151Z,100221.02
2018-03-26T20:55:07.653Z,100215.69
2018-03-26T20:57:35.111Z,100216.37
2018-03-26T21:00:02.578Z,100217.32
2018-03-26T21:02:30.056Z,100211.23
2018-03-26T21:04:57.531Z,100219.99
2018-03-26T21:07:25.010Z,100210.76
2018-03-26T21:09:52.487Z,100220.02
2018-03-26T21:12:19.972Z,100220.53
2018-03-26T21:14:47.435Z,100215.55
2018-03-26T21:17:14.924Z,100219.17
2018-03-26T21:19:42.398Z,100218.52
2018-03-26T21:22:10.708Z,100210.31
2018-03-26T21:24:38.206Z,100206.86
2018-03-26T21:27:05.672Z,100207.75
2018-03-26T21:29:33.147Z,100210.78
2018-03-26T21:32:00.633Z,100209.64
2018-03-26T21:34:28.099Z,100211.81
2018-03-26T21:36:55.586Z,100219.30
2018-03-26T21:39:23.062Z,100216.95
2018-03-26T21:41:50.546Z,100217.13
2018-03-26T21:44:18.017Z,100213.02
2018-03-26T21:46:45.516Z,100207.06
2018-03-26T21:49:12.979Z,100216.06
2018-03-26T21:51:40.465Z,100209.09
2018-03-26T21:54:07.933Z,100211.07
2018-03-26T21:56:35.415Z,100210.86
2018-03-26T21:59:02.886Z,100208.04
2018-03-26T22:01:30.397Z,100212.10
2018-03-26T22:03:57.915Z,100206.69
2018-03-26T22:06:25.376Z,100207.38
2018-03-26T22:08:52.863Z,100210.13
2018-03-26T22:11:20.332Z,100212.52
2018-03-26T22:13:47.806Z,100214.52
2018-03-26T22:16:15.267Z,100211.38
2018-03-26T22:18:42.761Z,100206.84
2018-03-26T22:21:10.227Z,100210.14
2018-03-26T22:23:37.706Z,100212.81
2018-03-26T22:26:05.177Z,100209.64
2018-03-26T22:28:32.675Z,100213.05
2018-03-26T22:31:00.140Z,100203.02
2018-03-26T22:33:27.623Z,100204.50
2018-03-26T22:35:55.091Z,100202.77
2018-03-26T22:38:22.599Z,100204.00
2018-03-26T22:40:50.062Z,100199.27
2018-03-26T22:43:17.542Z,100203.05
2018-03-26T22:45:45.011Z,100205.56
2018-03-26T22:48:12.497Z,100205.23
2018-03-26T22:50:39.968Z,100204.81
2018-03-26T22:53:07.454Z,100202.95
2018-03-26T22:55:34.919Z,100210.52
2018-03-26T22:58:02.402Z,100214.00
2018-03-26T23:00:29.863Z,100206.23
2018-03-26T23:02:57.348Z,100206.78
2018-03-26T23:05:24.820Z,100202.20
2018-03-26T23:07:52.315Z,100206.46
2018-03-26T23:10:19.779Z,100208.14
2018-03-26T23:12:47.267Z,100211.24
2018-03-26T23:15:14.739Z,100211.38
2018-03-26T23:17:42.227Z,100209.66
2018-03-26T23:22:48.699Z,100200.53
2018-03-26T23:25:16.168Z,100202.57
2018-03-26T23:27:43.626Z,100195.76
2018-03-26T23:30:11.106Z,100203.41
2018-03-26T23:32:38.572Z,100201.78
2018-03-26T23:35:06.052Z,100204.22
2018-03-26T23:37:33.520Z,100201.61
2018-03-26T23:40:01.122Z,100197.80
2018-03-26T23:42:28.620Z,100193.52
2018-03-26T23:44:56.107Z,100191.88
2018-03-26T23:47:23.574Z,100197.80
2018-03-26T23:49:51.063Z,100198.46
2018-03-26T23:52:18.532Z,100190.80
2018-03-26T23:54:46.022Z,100194.79
2018-03-26T23:57:13.492Z,100200.99
2018-03-26T23:59:40.992Z,100205.38
